createdAt,value
2022-11-04T00:00:11.361Z,315.00
2022-11-04T00:01:11.328Z,315.00
2022-11-04T00:02:11.433Z,315.00
2022-11-04T00:03:11.610Z,315.00
2022-11-04T00:04:11.372Z,315.00
2022-11-04T00:05:11.379Z,315.00
2022-11-04T00:06:11.395Z,315.00
2022-11-04T00:07:11.404Z,315.00
2022-11-04T00:08:11.413Z,315.00
2022-11-04T00:09:11.411Z,315.00
2022-11-04T00:10:11.434Z,315.00
2022-11-04T00:11:11.463Z,315.00
2022-11-04T00:12:11.469Z,315.00
2022-11-04T00:13:11.478Z,315.00
2022-11-04T00:14:11.470Z,315.00
2022-11-04T00:15:11.491Z,320.88
2022-11-04T00:16:11.500Z,321.75
2022-11-04T00:17:11.527Z,0.00
2022-11-04T00:18:11.542Z,0.00
2022-11-04T00:19:11.536Z,332.82
2022-11-04T00:20:11.543Z,349.12
2022-11-04T00:21:11.587Z,0.00
2022-11-04T00:22:11.563Z,0.00
2022-11-04T00:23:11.770Z,346.27
2022-11-04T00:24:11.594Z,351.59
2022-11-04T00:25:11.635Z,1.56
2022-11-04T00:27:11.663Z,332.20
2022-11-04T00:28:11.671Z,300.86
2022-11-04T00:29:11.639Z,284.20
2022-11-04T00:30:11.659Z,351.70
2022-11-04T00:31:11.663Z,0.00
2022-11-04T00:32:11.655Z,2.54
2022-11-04T00:33:11.667Z,315.00
2022-11-04T00:34:11.641Z,340.51
2022-11-04T00:35:11.631Z,296.12
2022-11-04T00:36:11.638Z,326.36
2022-11-04T00:37:11.663Z,318.46
2022-11-04T00:38:11.674Z,315.00
2022-11-04T00:39:11.683Z,324.97
2022-11-04T00:40:11.679Z,135.00
2022-11-04T00:41:11.644Z,202.08
2022-11-04T00:42:11.639Z,315.00
2022-11-04T00:43:11.655Z,324.14
2022-11-04T00:44:11.686Z,348.99
2022-11-04T00:45:11.679Z,13.44
2022-11-04T00:46:11.664Z,343.85
2022-11-04T00:47:11.634Z,315.00
2022-11-04T00:48:11.724Z,315.00
2022-11-04T00:49:11.659Z,350.54
2022-11-04T00:50:11.710Z,135.00
2022-11-04T00:52:11.663Z,354.85
2022-11-04T00:53:11.795Z,352.61
2022-11-04T00:54:11.697Z,56.50
2022-11-04T00:55:11.679Z,356.54
2022-11-04T00:56:11.659Z,12.48
2022-11-04T00:57:11.672Z,340.18
2022-11-04T00:58:11.658Z,358.53
2022-11-04T00:59:14.434Z,4.67
2022-11-04T01:00:11.681Z,66.00
2022-11-04T01:01:11.706Z,358.73
2022-11-04T01:02:11.713Z,315.00
2022-11-04T01:03:11.926Z,351.26
2022-11-04T01:04:11.709Z,315.00
2022-11-04T01:05:11.725Z,315.00
2022-11-04T01:06:11.683Z,315.00
2022-11-04T01:07:11.674Z,315.00
2022-11-04T01:08:11.674Z,3.90
2022-11-04T01:09:11.667Z,321.78
2022-11-04T01:10:11.692Z,315.00
2022-11-04T01:11:11.686Z,315.00
2022-11-04T01:12:11.696Z,320.96
2022-11-04T01:13:11.707Z,315.00
2022-11-04T01:14:11.682Z,315.00
2022-11-04T01:15:11.688Z,316.41
2022-11-04T01:16:11.708Z,344.22
2022-11-04T01:17:11.671Z,335.24
2022-11-04T01:18:11.673Z,350.97
2022-11-04T01:19:11.698Z,333.91
2022-11-04T01:20:11.743Z,315.00
2022-11-04T01:21:11.724Z,2.25
2022-11-04T01:22:11.695Z,358.39
2022-11-04T01:23:11.704Z,353.71
2022-11-04T01:24:11.712Z,347.88
2022-11-04T01:25:11.747Z,342.39
2022-11-04T01:26:11.705Z,315.00
2022-11-04T01:27:11.740Z,319.03
2022-11-04T01:28:11.688Z,225.00
2022-11-04T01:29:11.717Z,273.23
2022-11-04T01:30:11.708Z,316.34
2022-11-04T01:31:11.728Z,315.00
2022-11-04T01:32:11.703Z,352.23
2022-11-04T01:33:11.688Z,14.68
2022-11-04T01:34:11.688Z,355.20
2022-11-04T01:35:11.772Z,359.54
2022-11-04T01:36:11.727Z,80.29
2022-11-04T01:37:11.722Z,62.56
2022-11-04T01:38:11.987Z,73.57
2022-11-04T01:39:11.738Z,315.50
2022-11-04T01:40:11.757Z,270.94
2022-11-04T01:41:11.719Z,339.86
2022-11-04T01:42:11.746Z,357.82
2022-11-04T01:43:11.743Z,121.27
2022-11-04T01:44:11.755Z,147.31
2022-11-04T01:45:11.749Z,336.45
2022-11-04T01:46:11.744Z,0.00
2022-11-04T01:47:11.764Z,0.00
2022-11-04T01:48:11.720Z,2.18
2022-11-04T01:49:11.704Z,358.52
2022-11-04T01:50:11.697Z,355.68
2022-11-04T01:51:11.762Z,323.46
2022-11-04T01:52:11.751Z,315.92
2022-11-04T01:53:12.025Z,331.68
2022-11-04T01:54:11.720Z,108.13
2022-11-04T01:55:11.744Z,86.38
2022-11-04T01:56:11.760Z,11.66
2022-11-04T01:57:14.998Z,315.00
2022-11-04T01:58:11.775Z,315.00
2022-11-04T01:59:11.709Z,315.00
2022-11-04T02:00:11.753Z,314.75
2022-11-04T02:01:11.826Z,216.36
2022-11-04T02:02:11.845Z,90.00
2022-11-04T02:03:11.907Z,90.00
2022-11-04T02:04:11.792Z,90.00
2022-11-04T02:05:11.807Z,90.33
2022-11-04T02:06:11.768Z,90.00
2022-11-04T02:07:11.807Z,345.87
2022-11-04T02:08:11.745Z,321.89
2022-11-04T02:09:11.747Z,90.00
2022-11-04T02:10:11.756Z,84.11
2022-11-04T02:11:11.784Z,110.68
2022-11-04T02:12:11.755Z,115.29
2022-11-04T02:13:11.984Z,353.83
2022-11-04T02:14:11.749Z,315.00
2022-11-04T02:15:11.795Z,315.00
2022-11-04T02:16:11.779Z,322.25
2022-11-04T02:17:11.775Z,326.67
2022-11-04T02:18:11.772Z,0.00
2022-11-04T02:19:11.749Z,0.00
2022-11-04T02:20:11.777Z,0.00
2022-11-04T02:21:11.748Z,0.00
2022-11-04T02:22:11.788Z,0.00
2022-11-04T02:23:11.926Z,10.99
2022-11-04T02:24:11.760Z,315.00
2022-11-04T02:25:11.774Z,315.00
2022-11-04T02:26:11.811Z,315.00
2022-11-04T02:27:11.788Z,315.00
2022-11-04T02:28:11.765Z,315.00
2022-11-04T02:29:11.764Z,315.00
2022-11-04T02:30:11.779Z,315.65
2022-11-04T02:31:11.793Z,64.41
2022-11-04T02:32:11.787Z,21.99
2022-11-04T02:33:12.048Z,319.87
2022-11-04T02:34:11.792Z,315.00
2022-11-04T02:35:11.903Z,315.00
2022-11-04T02:36:11.788Z,315.00
2022-11-04T02:37:11.804Z,315.00
2022-11-04T02:38:11.796Z,315.00
2022-11-04T02:39:11.772Z,315.00
2022-11-04T02:40:11.803Z,315.00
2022-11-04T02:41:11.799Z,315.00
2022-11-04T02:42:11.798Z,315.00
2022-11-04T02:43:12.018Z,315.00
2022-11-04T02:44:11.815Z,332.28
2022-11-04T02:45:11.780Z,0.00
2022-11-04T02:46:11.779Z,0.00
2022-11-04T02:47:11.795Z,0.00
2022-11-04T02:48:11.808Z,0.00
2022-11-04T02:49:11.788Z,352.80
2022-11-04T02:50:11.816Z,315.00
2022-11-04T02:51:11.820Z,334.07
2022-11-04T02:52:11.824Z,315.00
2022-11-04T02:53:12.126Z,336.92
2022-11-04T02:54:11.804Z,0.00
2022-11-04T02:55:11.805Z,3.08
2022-11-04T02:56:11.804Z,238.09
2022-11-04T02:57:11.836Z,323.37
2022-11-04T02:58:11.816Z,327.83
2022-11-04T02:59:11.801Z,0.00
2022-11-04T03:00:11.784Z,0.00
2022-11-04T03:01:11.870Z,0.00
2022-11-04T03:02:11.927Z,0.00
2022-11-04T03:03:12.003Z,0.00
2022-11-04T03:04:11.780Z,0.00
2022-11-04T03:05:11.813Z,33.65
2022-11-04T03:06:11.863Z,254.32
2022-11-04T03:08:11.933Z,0.00
2022-11-04T03:09:11.803Z,0.00
2022-11-04T03:10:11.816Z,0.00
2022-11-04T03:11:11.839Z,338.46
2022-11-04T03:12:11.833Z,353.68
2022-11-04T03:13:11.859Z,5.47
2022-11-04T03:14:11.836Z,90.00
2022-11-04T03:15:11.868Z,50.82
2022-11-04T03:16:11.828Z,315.00
2022-11-04T03:17:11.828Z,315.00
2022-11-04T03:18:11.860Z,315.00
2022-11-04T03:19:11.861Z,315.00
2022-11-04T03:20:11.816Z,349.80
2022-11-04T03:21:11.848Z,359.30
2022-11-04T03:22:11.815Z,348.44
2022-11-04T03:23:11.812Z,50.06
2022-11-04T03:24:11.832Z,27.43
2022-11-04T03:25:11.868Z,0.00
2022-11-04T03:26:11.831Z,0.00
2022-11-04T03:27:11.844Z,354.61
2022-11-04T03:28:12.084Z,315.00
2022-11-04T03:29:11.851Z,315.00
2022-11-04T03:30:11.899Z,315.00
2022-11-04T03:31:11.848Z,315.00
2022-11-04T03:32:11.820Z,315.00
2022-11-04T03:33:12.093Z,315.00
2022-11-04T03:34:11.841Z,315.00
2022-11-04T03:35:11.857Z,315.00
2022-11-04T03:36:11.862Z,315.00
2022-11-04T03:37:11.852Z,318.33
2022-11-04T03:38:11.904Z,180.00
2022-11-04T03:39:11.912Z,180.00
2022-11-04T03:40:11.928Z,180.00
2022-11-04T03:41:11.917Z,180.00
2022-11-04T03:42:11.925Z,177.51
2022-11-04T03:43:12.134Z,10.41
2022-11-04T03:44:11.944Z,344.12
2022-11-04T03:45:11.978Z,315.00
2022-11-04T03:46:11.977Z,336.99
2022-11-04T03:47:11.995Z,2.78
2022-11-04T03:48:12.051Z,359.14
2022-11-04T03:49:12.022Z,0.00
2022-11-04T03:50:12.031Z,0.00
2022-11-04T03:51:12.037Z,0.00
2022-11-04T03:52:12.064Z,0.00
2022-11-04T03:53:12.446Z,0.00
2022-11-04T03:54:12.085Z,0.00
2022-11-04T03:55:12.065Z,0.00
2022-11-04T03:56:12.072Z,0.00
2022-11-04T03:57:12.093Z,0.00
2022-11-04T03:58:12.248Z,0.00
2022-11-04T03:59:12.133Z,0.00
2022-11-04T04:00:12.115Z,356.03
2022-11-04T04:01:12.168Z,359.34
2022-11-04T04:02:12.272Z,327.84
2022-11-04T04:03:12.178Z,0.00
2022-11-04T04:04:12.208Z,0.00
2022-11-04T04:05:15.976Z,0.00
2022-11-04T04:06:12.220Z,0.00
2022-11-04T04:07:12.213Z,0.00
2022-11-04T04:08:12.203Z,0.00
2022-11-04T04:09:12.213Z,0.00
2022-11-04T04:10:12.224Z,0.00
2022-11-04T04:11:12.185Z,0.00
2022-11-04T04:12:12.233Z,0.00
2022-11-04T04:13:12.232Z,0.00
2022-11-04T04:14:12.213Z,0.00
2022-11-04T04:15:12.237Z,0.00
2022-11-04T04:16:12.216Z,0.00
2022-11-04T04:17:12.244Z,0.00
2022-11-04T04:18:12.503Z,0.00
2022-11-04T04:19:12.224Z,0.00
2022-11-04T04:20:12.220Z,0.00
2022-11-04T04:21:12.201Z,0.00
2022-11-04T04:22:12.248Z,0.00
2022-11-04T04:23:12.241Z,0.00
2022-11-04T04:24:12.244Z,0.00
2022-11-04T04:25:12.230Z,0.00
2022-11-04T04:26:12.207Z,0.00
2022-11-04T04:27:12.248Z,0.00
2022-11-04T04:28:12.399Z,0.00
2022-11-04T04:29:12.292Z,0.00
2022-11-04T04:30:12.226Z,0.00
2022-11-04T04:31:12.219Z,0.00
2022-11-04T04:32:12.237Z,0.00
2022-11-04T04:33:12.233Z,0.00
2022-11-04T04:34:12.240Z,0.00
2022-11-04T04:35:12.250Z,0.00
2022-11-04T04:36:12.265Z,0.00
2022-11-04T04:37:12.252Z,0.00
2022-11-04T04:38:12.213Z,0.00
2022-11-04T04:39:12.225Z,0.00
2022-11-04T04:40:12.245Z,0.00
2022-11-04T04:41:12.246Z,0.00
2022-11-04T04:42:12.233Z,0.00
2022-11-04T04:43:12.461Z,0.00
2022-11-04T04:44:12.265Z,0.00
2022-11-04T04:45:12.229Z,0.00
2022-11-04T04:46:12.255Z,0.00
2022-11-04T04:47:12.267Z,0.00
2022-11-04T04:48:12.232Z,0.00
2022-11-04T04:49:12.228Z,0.00
2022-11-04T04:50:12.285Z,0.00
2022-11-04T04:51:12.277Z,0.00
2022-11-04T04:52:12.248Z,0.00
2022-11-04T04:53:12.382Z,0.00
2022-11-04T04:54:12.236Z,0.00
2022-11-04T04:55:12.321Z,0.00
2022-11-04T04:56:12.284Z,0.00
2022-11-04T04:57:12.284Z,0.00
2022-11-04T04:58:12.262Z,0.00
2022-11-04T04:59:12.264Z,0.00
2022-11-04T05:00:12.234Z,0.00
2022-11-04T05:01:12.308Z,0.00
2022-11-04T05:02:12.412Z,0.00
2022-11-04T05:03:12.354Z,0.00
2022-11-04T05:04:12.241Z,0.00
2022-11-04T05:05:12.382Z,0.00
2022-11-04T05:06:12.265Z,0.00
2022-11-04T05:07:12.265Z,0.00
2022-11-04T05:08:12.563Z,0.00
2022-11-04T05:09:12.284Z,0.00
2022-11-04T05:10:12.273Z,0.00
2022-11-04T05:11:12.268Z,0.00
2022-11-04T05:12:12.284Z,0.00
2022-11-04T05:13:12.292Z,0.00
2022-11-04T05:14:12.284Z,0.00
2022-11-04T05:15:12.255Z,0.00
2022-11-04T05:16:12.261Z,0.00
2022-11-04T05:17:12.280Z,0.00
2022-11-04T05:18:12.362Z,0.00
2022-11-04T05:19:12.291Z,0.00
2022-11-04T05:20:12.249Z,0.00
2022-11-04T05:21:12.261Z,0.00
2022-11-04T05:22:12.258Z,0.00
2022-11-04T05:23:12.325Z,0.00
2022-11-04T05:24:12.281Z,0.00
2022-11-04T05:25:12.399Z,0.00
2022-11-04T05:26:12.266Z,0.00
2022-11-04T05:27:12.261Z,0.00
2022-11-04T05:28:12.460Z,0.00
2022-11-04T05:29:12.338Z,0.00
2022-11-04T05:30:12.289Z,0.00
2022-11-04T05:31:12.313Z,0.00
2022-11-04T05:32:12.269Z,0.00
2022-11-04T05:33:12.719Z,0.00
2022-11-04T05:34:12.338Z,0.00
2022-11-04T05:35:12.328Z,0.00
2022-11-04T05:36:12.298Z,0.00
2022-11-04T05:37:12.274Z,0.00
2022-11-04T05:38:12.269Z,0.00
2022-11-04T05:39:12.314Z,0.00
2022-11-04T05:40:12.282Z,0.00
2022-11-04T05:41:12.294Z,0.00
2022-11-04T05:42:12.306Z,0.00
2022-11-04T05:43:12.361Z,0.00
2022-11-04T05:44:12.326Z,0.00
2022-11-04T05:45:12.350Z,0.00
2022-11-04T05:46:12.329Z,0.00
2022-11-04T05:47:12.285Z,0.00
2022-11-04T05:48:12.305Z,0.00
2022-11-04T05:49:12.320Z,0.00
2022-11-04T05:50:12.313Z,0.00
2022-11-04T05:51:12.309Z,0.00
2022-11-04T05:52:12.285Z,0.00
2022-11-04T05:53:12.630Z,0.00
2022-11-04T05:54:12.326Z,0.00
2022-11-04T05:55:12.321Z,0.00
2022-11-04T05:56:12.338Z,0.00
2022-11-04T05:57:12.306Z,0.00
2022-11-04T05:58:12.353Z,0.00
2022-11-04T05:59:12.318Z,0.00
2022-11-04T06:00:12.365Z,0.00
2022-11-04T06:01:12.315Z,0.00
2022-11-04T06:02:12.466Z,359.02
2022-11-04T06:03:15.449Z,0.00
2022-11-04T06:04:12.318Z,0.00
2022-11-04T06:05:12.309Z,0.00
2022-11-04T06:06:12.321Z,0.00
2022-11-04T06:07:12.357Z,0.00
2022-11-04T06:08:12.547Z,329.64
2022-11-04T06:09:12.324Z,315.00
2022-11-04T06:10:12.340Z,315.00
2022-11-04T06:11:12.483Z,315.00
2022-11-04T06:12:12.345Z,315.00
2022-11-04T06:13:12.366Z,315.00
2022-11-04T06:14:17.494Z,315.00
2022-11-04T06:15:12.342Z,315.00
2022-11-04T06:16:12.333Z,315.00
2022-11-04T06:18:12.317Z,315.00
2022-11-04T06:19:15.116Z,315.00
2022-11-04T06:20:12.329Z,315.00
2022-11-04T06:21:12.323Z,315.00
2022-11-04T06:22:12.334Z,315.00
2022-11-04T06:23:12.359Z,315.00
2022-11-04T06:24:12.322Z,315.00
2022-11-04T06:25:12.323Z,315.00
2022-11-04T06:26:12.373Z,315.00
2022-11-04T06:27:12.340Z,315.00
2022-11-04T06:28:12.337Z,315.00
2022-11-04T06:29:12.382Z,315.00
2022-11-04T06:30:12.341Z,315.00
2022-11-04T06:31:12.343Z,315.00
2022-11-04T06:32:12.341Z,315.00
2022-11-04T06:33:12.329Z,315.00
2022-11-04T06:34:12.359Z,315.00
2022-11-04T06:35:12.352Z,315.00
2022-11-04T06:36:12.411Z,315.00
2022-11-04T06:37:12.337Z,347.06
2022-11-04T06:38:12.372Z,352.12
2022-11-04T06:39:12.370Z,315.00
2022-11-04T06:40:12.357Z,330.68
2022-11-04T06:41:12.368Z,0.00
2022-11-04T06:42:12.378Z,0.00
2022-11-04T06:43:12.364Z,0.00
2022-11-04T06:44:12.358Z,0.00
2022-11-04T06:45:12.347Z,56.70
2022-11-04T06:46:12.392Z,135.00
2022-11-04T06:47:12.361Z,135.00
2022-11-04T06:48:12.357Z,135.00
2022-11-04T06:49:12.414Z,135.00
2022-11-04T06:50:12.371Z,130.12
2022-11-04T06:51:12.382Z,0.02
2022-11-04T06:52:12.373Z,0.00
2022-11-04T06:53:12.357Z,0.00
2022-11-04T06:54:12.363Z,338.22
2022-11-04T06:55:12.363Z,284.08
2022-11-04T06:56:12.407Z,294.27
2022-11-04T06:57:12.404Z,338.90
2022-11-04T06:58:12.390Z,345.99
2022-11-04T06:59:12.710Z,315.00
2022-11-04T07:00:12.427Z,342.30
2022-11-04T07:01:17.250Z,0.00
2022-11-04T07:02:12.463Z,0.00
2022-11-04T07:03:12.395Z,348.15
2022-11-04T07:04:12.393Z,0.00
2022-11-04T07:05:12.374Z,0.00
2022-11-04T07:06:12.378Z,0.00
2022-11-04T07:07:12.399Z,349.31
2022-11-04T07:08:12.435Z,315.00
2022-11-04T07:09:12.382Z,315.00
2022-11-04T07:10:12.423Z,315.00
2022-11-04T07:11:12.414Z,315.00
2022-11-04T07:12:12.446Z,315.00
2022-11-04T07:13:12.414Z,315.00
2022-11-04T07:14:12.405Z,315.00
2022-11-04T07:15:12.398Z,315.00
2022-11-04T07:16:12.383Z,315.00
2022-11-04T07:17:12.402Z,315.00
2022-11-04T07:18:12.537Z,315.00
2022-11-04T07:19:12.403Z,315.00
2022-11-04T07:20:12.395Z,352.84
2022-11-04T07:21:12.419Z,0.00
2022-11-04T07:22:12.373Z,0.00
2022-11-04T07:23:12.413Z,0.00
2022-11-04T07:24:12.387Z,333.37
2022-11-04T07:25:12.426Z,0.00
2022-11-04T07:26:12.400Z,0.00
2022-11-04T07:27:12.391Z,0.00
2022-11-04T07:28:12.775Z,0.00
2022-11-04T07:29:12.399Z,0.00
2022-11-04T07:30:12.417Z,327.05
2022-11-04T07:31:12.459Z,341.31
2022-11-04T07:32:12.392Z,319.72
2022-11-04T07:33:12.396Z,315.00
2022-11-04T07:34:12.386Z,336.85
2022-11-04T07:35:12.406Z,0.00
2022-11-04T07:36:12.413Z,0.00
2022-11-04T07:37:12.414Z,0.00
2022-11-04T07:38:12.431Z,0.00
2022-11-04T07:39:12.390Z,0.00
2022-11-04T07:40:12.399Z,354.86
2022-11-04T07:41:12.422Z,360.00
2022-11-04T07:42:12.419Z,351.17
2022-11-04T07:43:12.427Z,358.89
2022-11-04T07:44:12.939Z,352.78
2022-11-04T07:45:12.408Z,0.00
2022-11-04T07:46:12.454Z,0.00
2022-11-04T07:47:12.421Z,0.00
2022-11-04T07:48:12.552Z,0.00
2022-11-04T07:49:12.480Z,360.00
2022-11-04T07:50:12.469Z,0.00
2022-11-04T07:51:12.438Z,0.00
2022-11-04T07:52:12.430Z,0.00
2022-11-04T07:53:12.748Z,335.44
2022-11-04T07:54:12.439Z,180.00
2022-11-04T07:55:12.426Z,180.00
2022-11-04T07:56:12.411Z,180.00
2022-11-04T07:57:12.404Z,180.00
2022-11-04T07:58:12.439Z,180.00
2022-11-04T07:59:12.421Z,180.00
2022-11-04T08:00:12.445Z,180.00
2022-11-04T08:01:12.445Z,184.99
2022-11-04T08:02:12.620Z,315.00
2022-11-04T08:03:12.879Z,315.00
2022-11-04T08:04:12.418Z,338.86
2022-11-04T08:05:12.420Z,0.00
2022-11-04T08:06:12.427Z,0.00
2022-11-04T08:07:12.413Z,332.99
2022-11-04T08:08:12.447Z,269.70
2022-11-04T08:09:12.496Z,315.00
2022-11-04T08:10:12.457Z,315.00
2022-11-04T08:11:17.131Z,226.24
2022-11-04T08:12:12.485Z,225.00
2022-11-04T08:13:12.464Z,131.15
2022-11-04T08:14:12.452Z,46.82
2022-11-04T08:15:12.406Z,0.00
2022-11-04T08:16:12.467Z,351.43
2022-11-04T08:17:12.486Z,315.00
2022-11-04T08:18:12.451Z,315.00
2022-11-04T08:19:12.462Z,315.00
2022-11-04T08:20:12.492Z,315.00
2022-11-04T08:21:12.422Z,326.38
2022-11-04T08:22:12.447Z,315.00
2022-11-04T08:23:12.548Z,315.00
2022-11-04T08:24:12.443Z,315.00
2022-11-04T08:25:12.459Z,326.12
2022-11-04T08:26:12.461Z,0.24
2022-11-04T08:27:12.458Z,344.30
2022-11-04T08:28:12.478Z,338.37
2022-11-04T08:29:12.490Z,355.56
2022-11-04T08:30:12.444Z,350.35
2022-11-04T08:31:12.478Z,225.00
2022-11-04T08:32:12.437Z,226.04
2022-11-04T08:33:12.498Z,315.01
2022-11-04T08:34:12.458Z,323.47
2022-11-04T08:35:12.457Z,335.80
2022-11-04T08:36:12.450Z,337.57
2022-11-04T08:37:12.453Z,315.00
2022-11-04T08:38:12.489Z,321.16
2022-11-04T08:39:12.483Z,325.05
2022-11-04T08:40:12.449Z,315.00
2022-11-04T08:41:12.445Z,315.00
2022-11-04T08:42:12.446Z,315.00
2022-11-04T08:43:12.589Z,315.00
2022-11-04T08:44:12.468Z,329.26
2022-11-04T08:45:12.508Z,0.00
2022-11-04T08:46:12.505Z,0.00
2022-11-04T08:47:12.462Z,358.00
2022-11-04T08:48:12.812Z,330.17
2022-11-04T08:49:16.237Z,0.00
2022-11-04T08:50:12.517Z,0.00
2022-11-04T08:51:12.480Z,359.84
2022-11-04T08:52:12.533Z,315.00
2022-11-04T08:53:12.576Z,315.00
2022-11-04T08:54:12.478Z,324.91
2022-11-04T08:55:12.490Z,315.00
2022-11-04T08:56:12.462Z,315.00
2022-11-04T08:57:12.476Z,315.00
2022-11-04T08:58:12.592Z,345.89
2022-11-04T08:59:12.475Z,315.00
2022-11-04T09:00:12.490Z,315.00
2022-11-04T09:01:12.478Z,315.00
2022-11-04T09:02:12.540Z,315.00
2022-11-04T09:03:12.718Z,315.00
2022-11-04T09:04:12.564Z,357.70
2022-11-04T09:05:12.503Z,346.35
2022-11-04T09:06:12.541Z,315.00
2022-11-04T09:07:12.503Z,315.00
2022-11-04T09:08:12.506Z,315.00
2022-11-04T09:09:12.502Z,319.59
2022-11-04T09:10:12.493Z,315.00
2022-11-04T09:11:12.508Z,315.00
2022-11-04T09:12:12.510Z,315.00
2022-11-04T09:13:12.704Z,315.00
2022-11-04T09:14:12.491Z,334.76
2022-11-04T09:15:13.537Z,356.19
2022-11-04T09:16:12.523Z,315.00
2022-11-04T09:17:12.497Z,315.00
2022-11-04T09:18:12.488Z,315.00
2022-11-04T09:19:12.480Z,315.00
2022-11-04T09:20:12.516Z,342.96
2022-11-04T09:21:12.528Z,0.00
2022-11-04T09:22:12.508Z,0.00
2022-11-04T09:23:12.642Z,0.00
2022-11-04T09:24:12.526Z,346.84
2022-11-04T09:25:12.515Z,315.00
2022-11-04T09:26:12.531Z,315.00
2022-11-04T09:27:12.526Z,315.00
2022-11-04T09:28:12.517Z,315.00
2022-11-04T09:29:12.518Z,340.19
2022-11-04T09:30:12.522Z,353.15
2022-11-04T09:31:12.547Z,0.00
2022-11-04T09:32:12.508Z,0.09
2022-11-04T09:33:12.617Z,15.19
2022-11-04T09:34:12.539Z,0.00
2022-11-04T09:35:12.547Z,327.26
2022-11-04T09:36:12.558Z,315.00
2022-11-04T09:37:12.519Z,315.00
2022-11-04T09:38:12.556Z,315.00
2022-11-04T09:39:12.535Z,315.00
2022-11-04T09:40:12.540Z,315.00
2022-11-04T09:41:12.550Z,315.00
2022-11-04T09:42:12.573Z,315.00
2022-11-04T09:43:12.670Z,315.00
2022-11-04T09:44:12.538Z,355.37
2022-11-04T09:45:21.795Z,0.00
2022-11-04T09:46:12.545Z,357.35
2022-11-04T09:47:12.565Z,335.35
2022-11-04T09:48:12.626Z,0.00
2022-11-04T09:49:12.561Z,0.00
2022-11-04T09:50:12.555Z,0.00
2022-11-04T09:51:26.319Z,0.00
2022-11-04T09:52:12.529Z,0.00
2022-11-04T09:53:12.606Z,0.00
2022-11-04T09:54:12.613Z,347.65
2022-11-04T09:55:12.566Z,315.00
2022-11-04T09:56:12.565Z,315.00
2022-11-04T09:57:12.546Z,315.00
2022-11-04T09:58:12.684Z,315.00
2022-11-04T09:59:12.547Z,315.00
2022-11-04T10:00:12.548Z,315.00
2022-11-04T10:01:12.608Z,315.00
2022-11-04T10:02:15.290Z,315.00
2022-11-04T10:03:12.911Z,315.00
2022-11-04T10:04:12.568Z,315.00
2022-11-04T10:05:12.562Z,315.00
2022-11-04T10:06:12.563Z,315.00
2022-11-04T10:07:12.568Z,315.00
2022-11-04T10:08:12.617Z,315.00
2022-11-04T10:09:12.586Z,314.75
2022-11-04T10:10:12.558Z,314.18
2022-11-04T10:11:12.569Z,315.00
2022-11-04T10:12:12.536Z,315.00
2022-11-04T10:13:12.643Z,315.00
2022-11-04T10:14:12.611Z,315.00
2022-11-04T10:15:12.566Z,315.00
2022-11-04T10:16:12.570Z,321.32
2022-11-04T10:17:12.574Z,315.00
2022-11-04T10:18:12.558Z,313.34
2022-11-04T10:19:12.584Z,229.07
2022-11-04T10:20:12.593Z,315.00
2022-11-04T10:21:12.566Z,353.08
2022-11-04T10:22:12.557Z,0.00
2022-11-04T10:23:12.666Z,0.00
2022-11-04T10:24:12.600Z,0.00
2022-11-04T10:25:12.587Z,333.56
2022-11-04T10:26:12.559Z,315.00
2022-11-04T10:27:12.589Z,315.00
2022-11-04T10:28:12.594Z,315.00
2022-11-04T10:29:12.596Z,317.28
2022-11-04T10:30:12.593Z,0.00
2022-11-04T10:31:12.585Z,0.75
2022-11-04T10:32:12.597Z,315.00
2022-11-04T10:33:12.781Z,315.00
2022-11-04T10:34:12.587Z,315.00
2022-11-04T10:35:12.578Z,315.00
2022-11-04T10:36:12.625Z,315.00
2022-11-04T10:37:12.632Z,315.00
2022-11-04T10:38:12.598Z,315.00
2022-11-04T10:39:12.602Z,315.00
2022-11-04T10:40:12.604Z,326.89
2022-11-04T10:41:12.587Z,0.00
2022-11-04T10:42:12.606Z,0.00
2022-11-04T10:43:12.786Z,0.00
2022-11-04T10:44:12.580Z,0.00
2022-11-04T10:45:12.603Z,342.61
2022-11-04T10:46:12.603Z,299.20
2022-11-04T10:47:12.621Z,315.00
2022-11-04T10:48:12.649Z,302.38
2022-11-04T10:49:12.633Z,330.41
2022-11-04T10:50:29.961Z,360.00
2022-11-04T10:51:12.623Z,330.29
2022-11-04T10:52:12.612Z,318.56
2022-11-04T10:53:12.615Z,257.07
2022-11-04T10:54:12.632Z,315.00
2022-11-04T10:55:12.633Z,344.01
2022-11-04T10:56:12.610Z,0.00
2022-11-04T10:57:12.626Z,356.79
2022-11-04T10:58:12.648Z,315.00
2022-11-04T10:59:16.305Z,315.00
2022-11-04T11:00:12.620Z,315.00
2022-11-04T11:01:15.048Z,315.00
2022-11-04T11:02:12.634Z,315.00
2022-11-04T11:03:12.591Z,336.03
2022-11-04T11:04:12.644Z,90.00
2022-11-04T11:05:12.629Z,270.00
2022-11-04T11:06:12.664Z,270.00
2022-11-04T11:07:12.683Z,270.00
2022-11-04T11:08:12.675Z,270.00
2022-11-04T11:09:12.721Z,270.88
2022-11-04T11:10:12.762Z,315.00
2022-11-04T11:11:12.740Z,315.00
2022-11-04T11:12:36.677Z,315.00
2022-11-04T11:13:12.784Z,315.00
2022-11-04T11:14:12.782Z,315.00
2022-11-04T11:15:14.656Z,315.00
2022-11-04T11:16:12.754Z,324.62
2022-11-04T11:17:12.711Z,0.00
2022-11-04T11:18:12.734Z,0.00
2022-11-04T11:19:12.733Z,353.68
2022-11-04T11:20:12.800Z,315.00
2022-11-04T11:21:12.767Z,315.00
2022-11-04T11:22:12.738Z,352.37
2022-11-04T11:23:12.924Z,0.00
2022-11-04T11:24:12.752Z,333.96
2022-11-04T11:25:12.731Z,324.69
2022-11-04T11:26:12.761Z,359.80
2022-11-04T11:27:12.772Z,1.87
2022-11-04T11:28:12.755Z,344.64
2022-11-04T11:29:12.749Z,336.30
2022-11-04T11:30:12.768Z,42.19
2022-11-04T11:31:12.723Z,4.43
2022-11-04T11:32:12.782Z,150.48
2022-11-04T11:33:12.833Z,225.00
2022-11-04T11:34:12.742Z,225.00
2022-11-04T11:35:12.736Z,225.00
2022-11-04T11:36:12.733Z,245.18
2022-11-04T11:37:12.758Z,0.00
2022-11-04T11:38:12.745Z,3.80
2022-11-04T11:39:12.953Z,315.00
2022-11-04T11:40:12.761Z,315.00
2022-11-04T11:41:26.446Z,315.00
2022-11-04T11:42:12.749Z,315.00
2022-11-04T11:43:12.774Z,315.00
2022-11-04T11:44:12.751Z,315.00
2022-11-04T11:45:12.771Z,315.00
2022-11-04T11:46:12.746Z,315.00
2022-11-04T11:47:12.770Z,315.00
2022-11-04T11:48:12.746Z,315.00
2022-11-04T11:49:12.848Z,315.00
2022-11-04T11:50:12.762Z,315.00
2022-11-04T11:51:12.785Z,315.00
2022-11-04T11:52:12.790Z,315.00
2022-11-04T11:53:12.784Z,315.00
2022-11-04T11:54:12.777Z,315.00
2022-11-04T11:55:12.785Z,315.00
2022-11-04T11:56:12.774Z,315.00
2022-11-04T11:57:14.669Z,315.00
2022-11-04T12:00:37.642Z,315.00
2022-11-04T12:01:21.951Z,315.00
2022-11-04T12:02:12.861Z,315.00
2022-11-04T12:03:13.464Z,315.00
2022-11-04T12:10:18.532Z,0.00
2022-11-04T12:11:12.761Z,0.00
2022-11-04T12:12:12.802Z,0.00
2022-11-04T12:13:23.812Z,0.00
2022-11-04T12:14:12.813Z,0.00
2022-11-04T12:15:12.859Z,358.38
2022-11-04T12:16:12.786Z,333.99
2022-11-04T12:17:12.831Z,329.32
2022-11-04T12:18:12.780Z,315.00
2022-11-04T12:19:12.844Z,315.00
2022-11-04T12:20:15.030Z,315.00
2022-11-04T12:21:12.795Z,315.00
2022-11-04T12:22:12.813Z,315.00
2022-11-04T12:23:12.802Z,315.00
2022-11-04T12:24:12.825Z,315.00
2022-11-04T12:25:12.798Z,315.00
2022-11-04T12:26:12.819Z,315.00
2022-11-04T12:27:12.813Z,315.00
2022-11-04T12:28:12.806Z,315.00
2022-11-04T12:29:12.860Z,315.00
2022-11-04T12:30:12.878Z,315.00
2022-11-04T12:31:12.835Z,332.29
2022-11-04T12:32:12.822Z,321.62
2022-11-04T12:33:12.880Z,318.11
2022-11-04T12:34:12.826Z,130.19
2022-11-04T12:35:12.833Z,315.00
2022-11-04T12:36:12.800Z,315.00
2022-11-04T12:37:12.819Z,315.00
2022-11-04T12:38:12.856Z,315.00
2022-11-04T12:39:12.870Z,344.89
2022-11-04T12:40:12.885Z,298.44
2022-11-04T12:41:34.644Z,315.00
2022-11-04T12:42:21.220Z,316.80
2022-11-04T12:43:12.995Z,315.00
2022-11-04T12:44:12.917Z,315.00
2022-11-04T12:45:12.881Z,315.00
2022-11-04T12:46:12.880Z,315.00
2022-11-04T12:47:12.886Z,315.00
2022-11-04T12:48:12.908Z,315.00
2022-11-04T12:49:12.904Z,315.00
2022-11-04T12:50:12.903Z,315.00
2022-11-04T12:51:12.877Z,315.00
2022-11-04T12:52:12.862Z,341.24
2022-11-04T12:53:12.981Z,339.58
2022-11-04T12:54:12.898Z,0.00
2022-11-04T12:55:12.930Z,352.83
2022-11-04T12:56:12.893Z,337.29